sensor_id;sensor_type;location;lat;lon;timestamp;pressure;altitude;pressure_sealevel;temperature;humidity
48800;BME280;34611;47.964;7.982;2023-05-09T00:06:36;97074.41;;;12.93;68.34
48800;BME280;34611;47.964;7.982;2023-05-09T00:13:36;97080.59;;;12.92;68.37
48800;BME280;34611;47.964;7.982;2023-05-09T00:20:37;97074.41;;;12.93;68.30
48800;BME280;34611;47.964;7.982;2023-05-09T00:27:39;97054.50;;;12.92;68.25
48800;BME280;34611;47.964;7.982;2023-05-09T00:34:40;97051.03;;;12.91;68.32
48800;BME280;34611;47.964;7.982;2023-05-09T00:41:40;97030.16;;;12.91;68.26
48800;BME280;34611;47.964;7.982;2023-05-09T00:48:41;97026.63;;;12.92;68.16
48800;BME280;34611;47.964;7.982;2023-05-09T00:55:41;97018.78;;;12.92;68.39
48800;BME280;34611;47.964;7.982;2023-05-09T01:02:42;97006.56;;;12.93;68.33
48800;BME280;34611;47.964;7.982;2023-05-09T01:16:50;96998.84;;;12.91;68.33
48800;BME280;34611;47.964;7.982;2023-05-09T01:31:13;97005.75;;;12.92;68.37
48800;BME280;34611;47.964;7.982;2023-05-09T01:38:16;96996.94;;;12.93;68.14
48800;BME280;34611;47.964;7.982;2023-05-09T01:45:17;96996.13;;;12.93;68.30
48800;BME280;34611;47.964;7.982;2023-05-09T01:52:18;96984.88;;;12.92;68.34
48800;BME280;34611;47.964;7.982;2023-05-09T01:59:20;96980.47;;;12.93;68.14
48800;BME280;34611;47.964;7.982;2023-05-09T02:06:22;96977.03;;;12.92;68.26
48800;BME280;34611;47.964;7.982;2023-05-09T02:13:23;96957.97;;;12.92;68.31
48800;BME280;34611;47.964;7.982;2023-05-09T02:20:24;96959.59;;;12.93;68.06
48800;BME280;34611;47.964;7.982;2023-05-09T02:27:24;96951.75;;;12.93;68.24
48800;BME280;34611;47.964;7.982;2023-05-09T02:34:25;96955.34;;;12.92;68.15
48800;BME280;34611;47.964;7.982;2023-05-09T02:41:25;96959.59;;;12.93;68.18
48800;BME280;34611;47.964;7.982;2023-05-09T02:48:27;96950.13;;;12.92;68.30
48800;BME280;34611;47.964;7.982;2023-05-09T02:55:27;96944.91;;;12.92;68.16
48800;BME280;34611;47.964;7.982;2023-05-09T03:02:28;96935.28;;;12.92;68.25
48800;BME280;34611;47.964;7.982;2023-05-09T03:09:29;96945.72;;;12.92;68.26
48800;BME280;34611;47.964;7.982;2023-05-09T03:16:29;96943.94;;;12.93;68.35
48800;BME280;34611;47.964;7.982;2023-05-09T03:23:30;96927.47;;;12.92;68.19
48800;BME280;34611;47.964;7.982;2023-05-09T03:30:31;96934.31;;;12.93;68.15
48800;BME280;34611;47.964;7.982;2023-05-09T03:37:31;96925.53;;;12.94;68.05
48800;BME280;34611;47.964;7.982;2023-05-09T03:44:32;96938.84;;;12.91;68.11
48800;BME280;34611;47.964;7.982;2023-05-09T03:51:33;96936.09;;;12.93;68.32
48800;BME280;34611;47.964;7.982;2023-05-09T03:58:36;96929.94;;;12.94;68.18
48800;BME280;34611;47.964;7.982;2023-05-09T04:05:36;96926.66;;;12.92;68.24
48800;BME280;34611;47.964;7.982;2023-05-09T04:12:38;96928.28;;;12.93;68.07
48800;BME280;34611;47.964;7.982;2023-05-09T04:19:39;96926.66;;;12.92;68.09
48800;BME280;34611;47.964;7.982;2023-05-09T04:26:40;96923.88;;;12.93;68.07
48800;BME280;34611;47.964;7.982;2023-05-09T04:33:44;96935.28;;;12.92;67.92
48800;BME280;34611;47.964;7.982;2023-05-09T04:40:44;96922.25;;;12.92;68.27
48800;BME280;34611;47.964;7.982;2023-05-09T04:47:45;96917.03;;;12.92;68.26
48800;BME280;34611;47.964;7.982;2023-05-09T04:54:46;96917.84;;;12.93;68.17
48800;BME280;34611;47.964;7.982;2023-05-09T05:01:48;96901.38;;;12.92;68.05
48800;BME280;34611;47.964;7.982;2023-05-09T05:08:49;96901.38;;;12.92;68.16
48800;BME280;34611;47.964;7.982;2023-05-09T05:15:49;96910.03;;;12.93;68.00
48800;BME280;34611;47.964;7.982;2023-05-09T05:22:51;96908.22;;;12.93;67.96
48800;BME280;34611;47.964;7.982;2023-05-09T05:29:53;96912.63;;;12.93;68.16
48800;BME280;34611;47.964;7.982;2023-05-09T05:36:54;96896.16;;;12.92;68.23
48800;BME280;34611;47.964;7.982;2023-05-09T05:43:55;96890.13;;;12.92;68.18
48800;BME280;34611;47.964;7.982;2023-05-09T05:50:55;96890.94;;;12.92;68.05
48800;BME280;34611;47.964;7.982;2023-05-09T05:57:59;96883.94;;;12.93;68.04
48800;BME280;34611;47.964;7.982;2023-05-09T06:05:00;96880.50;;;12.92;68.00
48800;BME280;34611;47.964;7.982;2023-05-09T06:12:00;96864.03;;;12.92;68.17
48800;BME280;34611;47.964;7.982;2023-05-09T06:19:01;96870.75;;;12.94;68.17
48800;BME280;34611;47.964;7.982;2023-05-09T06:26:02;96859.63;;;12.92;68.16
48800;BME280;34611;47.964;7.982;2023-05-09T06:33:02;96849.19;;;12.92;68.18
48800;BME280;34611;47.964;7.982;2023-05-09T06:40:02;96846.59;;;12.92;68.17
48800;BME280;34611;47.964;7.982;2023-05-09T06:47:03;96831.88;;;12.91;68.06
48800;BME280;34611;47.964;7.982;2023-05-09T06:54:03;96817.88;;;12.92;68.05
48800;BME280;34611;47.964;7.982;2023-05-09T07:01:04;96813.47;;;12.93;68.24
48800;BME280;34611;47.964;7.982;2023-05-09T07:08:04;96804.97;;;12.91;68.07
48800;BME280;34611;47.964;7.982;2023-05-09T07:15:04;96800.56;;;12.91;68.22
48800;BME280;34611;47.964;7.982;2023-05-09T07:22:05;96796.19;;;12.92;68.06
48800;BME280;34611;47.964;7.982;2023-05-09T07:29:05;96778.88;;;12.91;67.99
48800;BME280;34611;47.964;7.982;2023-05-09T07:36:05;96769.94;;;12.93;67.92
48800;BME280;34611;47.964;7.982;2023-05-09T07:43:06;96757.06;;;12.92;68.12
48800;BME280;34611;47.964;7.982;2023-05-09T07:50:06;96757.06;;;12.92;68.13
48800;BME280;34611;47.964;7.982;2023-05-09T07:57:06;96755.25;;;12.92;67.95
48800;BME280;34611;47.964;7.982;2023-05-09T08:04:07;96733.59;;;12.92;68.04
48800;BME280;34611;47.964;7.982;2023-05-09T08:11:08;96724.91;;;12.91;68.15
48800;BME280;34611;47.964;7.982;2023-05-09T08:18:08;96708.31;;;12.92;68.21
48800;BME280;34611;47.964;7.982;2023-05-09T08:25:09;96710.09;;;12.92;68.11
48800;BME280;34611;47.964;7.982;2023-05-09T08:32:09;96693.59;;;12.91;68.06
48800;BME280;34611;47.964;7.982;2023-05-09T08:39:09;96688.25;;;12.93;67.98
48800;BME280;34611;47.964;7.982;2023-05-09T08:46:10;96679.59;;;12.92;68.04
48800;BME280;34611;47.964;7.982;2023-05-09T08:53:10;96674.38;;;12.92;68.13
48800;BME280;34611;47.964;7.982;2023-05-09T09:00:11;96667.50;;;12.91;67.90
48800;BME280;34611;47.964;7.982;2023-05-09T09:07:12;96664.75;;;12.93;68.12
48800;BME280;34611;47.964;7.982;2023-05-09T09:14:23;96650.91;;;12.92;68.28
48800;BME280;34611;47.964;7.982;2023-05-09T09:21:25;96647.63;;;12.90;68.19
48800;BME280;34611;47.964;7.982;2023-05-09T09:28:26;96625.75;;;12.91;68.07
48800;BME280;34611;47.964;7.982;2023-05-09T09:35:27;96618.78;;;12.92;68.13
48800;BME280;34611;47.964;7.982;2023-05-09T09:42:33;96614.38;;;12.92;68.11
48800;BME280;34611;47.964;7.982;2023-05-09T09:49:39;96609.97;;;12.93;68.06
48800;BME280;34611;47.964;7.982;2023-05-09T09:56:44;96599.69;;;12.91;68.09
48800;BME280;34611;47.964;7.982;2023-05-09T10:03:45;96592.69;;;12.92;68.07
48800;BME280;34611;47.964;7.982;2023-05-09T10:10:45;96586.50;;;12.93;68.05
48800;BME280;34611;47.964;7.982;2023-05-09T10:17:46;96568.38;;;12.91;68.01
48800;BME280;34611;47.964;7.982;2023-05-09T10:24:54;96564.81;;;12.92;68.06
48800;BME280;34611;47.964;7.982;2023-05-09T10:31:59;96552.56;;;12.93;67.88
48800;BME280;34611;47.964;7.982;2023-05-09T10:39:05;96546.53;;;12.92;68.08
48800;BME280;34611;47.964;7.982;2023-05-09T10:46:06;96536.09;;;12.92;68.14
48800;BME280;34611;47.964;7.982;2023-05-09T10:53:07;96527.28;;;12.93;68.11
48800;BME280;34611;47.964;7.982;2023-05-09T11:00:10;96515.25;;;12.92;68.00
48800;BME280;34611;47.964;7.982;2023-05-09T11:07:24;96500.53;;;12.91;67.97
48800;BME280;34611;47.964;7.982;2023-05-09T11:14:29;96484.88;;;12.91;68.07
48800;BME280;34611;47.964;7.982;2023-05-09T11:21:29;96482.13;;;12.93;68.07
48800;BME280;34611;47.964;7.982;2023-05-09T11:28:30;96464.00;;;12.91;68.00
48800;BME280;34611;47.964;7.982;2023-05-09T11:35:31;96450.97;;;12.91;68.18
48800;BME280;34611;47.964;7.982;2023-05-09T11:42:32;96441.38;;;12.92;67.96
48800;BME280;34611;47.964;7.982;2023-05-09T11:49:32;96429.28;;;12.91;67.96
48800;BME280;34611;47.964;7.982;2023-05-09T11:56:33;96422.28;;;12.91;68.08
48800;BME280;34611;47.964;7.982;2023-05-09T12:03:34;96414.44;;;12.91;68.08
48800;BME280;34611;47.964;7.982;2023-05-09T12:10:37;96405.81;;;12.91;68.01
48800;BME280;34611;47.964;7.982;2023-05-09T12:17:39;96391.81;;;12.92;67.93
48800;BME280;34611;47.964;7.982;2023-05-09T12:24:39;96382.34;;;12.91;68.15
48800;BME280;34611;47.964;7.982;2023-05-09T12:31:40;96383.16;;;12.91;67.92
48800;BME280;34611;47.964;7.982;2023-05-09T12:38:44;96359.66;;;12.91;68.10
48800;BME280;34611;47.964;7.982;2023-05-09T12:45:51;96353.63;;;12.91;68.08
48800;BME280;34611;47.964;7.982;2023-05-09T12:52:52;96344.84;;;12.92;68.06
48800;BME280;34611;47.964;7.982;2023-05-09T12:59:56;96343.06;;;12.92;68.11
48800;BME280;34611;47.964;7.982;2023-05-09T13:06:57;96343.06;;;12.92;68.10
48800;BME280;34611;47.964;7.982;2023-05-09T13:13:58;96329.19;;;12.92;68.24
48800;BME280;34611;47.964;7.982;2023-05-09T13:20:59;96311.75;;;12.92;68.23
48800;BME280;34611;47.964;7.982;2023-05-09T13:27:59;96301.31;;;12.92;67.95
48800;BME280;34611;47.964;7.982;2023-05-09T13:34:59;96300.50;;;12.92;68.12
48800;BME280;34611;47.964;7.982;2023-05-09T13:42:00;96289.22;;;12.91;68.17
48800;BME280;34611;47.964;7.982;2023-05-09T13:49:00;96284.84;;;12.92;68.04
48800;BME280;34611;47.964;7.982;2023-05-09T13:56:00;96280.28;;;12.94;68.01
48800;BME280;34611;47.964;7.982;2023-05-09T14:03:01;96274.41;;;12.92;68.16
48800;BME280;34611;47.964;7.982;2023-05-09T14:10:02;96267.41;;;12.92;68.15
48800;BME280;34611;47.964;7.982;2023-05-09T14:17:03;96255.16;;;12.93;68.07
48800;BME280;34611;47.964;7.982;2023-05-09T14:24:04;96257.78;;;12.93;68.09
48800;BME280;34611;47.964;7.982;2023-05-09T14:31:04;96259.56;;;12.92;67.98
48800;BME280;34611;47.964;7.982;2023-05-09T14:38:04;96242.97;;;13.02;67.86
48800;BME280;34611;47.964;7.982;2023-05-09T14:45:05;96245.53;;;12.93;68.09
48800;BME280;34611;47.964;7.982;2023-05-09T14:52:06;96264.78;;;12.92;68.09
48800;BME280;34611;47.964;7.982;2023-05-09T14:59:06;96271.63;;;12.93;68.18
48800;BME280;34611;47.964;7.982;2023-05-09T15:06:06;96261.19;;;12.93;68.17
48800;BME280;34611;47.964;7.982;2023-05-09T15:13:07;96248.16;;;12.93;68.01
48800;BME280;34611;47.964;7.982;2023-05-09T15:20:07;96252.41;;;12.94;68.18
48800;BME280;34611;47.964;7.982;2023-05-09T15:27:07;96251.75;;;12.92;68.24
48800;BME280;34611;47.964;7.982;2023-05-09T15:34:08;96252.41;;;12.94;68.22
48800;BME280;34611;47.964;7.982;2023-05-09T15:41:08;96256.81;;;12.94;68.08
48800;BME280;34611;47.964;7.982;2023-05-09T15:48:08;96271.63;;;12.93;68.23
48800;BME280;34611;47.964;7.982;2023-05-09T15:55:09;96265.44;;;12.94;68.06
48800;BME280;34611;47.964;7.982;2023-05-09T16:02:09;96269.88;;;12.94;68.08
48800;BME280;34611;47.964;7.982;2023-05-09T16:09:11;96282.91;;;12.94;68.06
48800;BME280;34611;47.964;7.982;2023-05-09T16:16:12;96278.50;;;12.94;68.20
48800;BME280;34611;47.964;7.982;2023-05-09T16:23:13;96276.84;;;12.93;68.09
48800;BME280;34611;47.964;7.982;2023-05-09T16:30:13;96282.91;;;12.94;68.03
48800;BME280;34611;47.964;7.982;2023-05-09T16:37:13;96275.88;;;12.94;68.20
48800;BME280;34611;47.964;7.982;2023-05-09T16:44:15;96275.06;;;12.94;68.23
48800;BME280;34611;47.964;7.982;2023-05-09T16:51:15;96263.66;;;12.95;68.20
48800;BME280;34611;47.964;7.982;2023-05-09T16:58:17;96268.88;;;12.95;68.15
48800;BME280;34611;47.964;7.982;2023-05-09T17:05:23;96257.63;;;12.94;68.02
48800;BME280;34611;47.964;7.982;2023-05-09T17:12:23;96247.19;;;12.94;68.23
48800;BME280;34611;47.964;7.982;2023-05-09T17:19:24;96248.00;;;12.95;68.21
48800;BME280;34611;47.964;7.982;2023-05-09T17:26:24;96248.16;;;12.93;68.12
48800;BME280;34611;47.964;7.982;2023-05-09T17:33:25;96245.38;;;12.95;68.08
48800;BME280;34611;47.964;7.982;2023-05-09T17:40:25;96242.94;;;12.93;68.26
48800;BME280;34611;47.964;7.982;2023-05-09T17:47:26;96229.88;;;12.93;68.29
48800;BME280;34611;47.964;7.982;2023-05-09T17:54:26;96241.16;;;12.94;68.14
48800;BME280;34611;47.964;7.982;2023-05-09T18:01:27;96256.81;;;12.94;68.26
48800;BME280;34611;47.964;7.982;2023-05-09T18:08:27;96250.75;;;12.93;68.27
48800;BME280;34611;47.964;7.982;2023-05-09T18:15:28;96248.16;;;12.93;68.24
48800;BME280;34611;47.964;7.982;2023-05-09T18:22:29;96247.19;;;12.94;68.21
48800;BME280;34611;47.964;7.982;2023-05-09T18:29:29;96242.78;;;12.95;68.24
48800;BME280;34611;47.964;7.982;2023-05-09T18:36:29;96247.19;;;12.94;68.08
48800;BME280;34611;47.964;7.982;2023-05-09T18:43:30;96245.53;;;12.93;68.28
48800;BME280;34611;47.964;7.982;2023-05-09T18:50:30;96241.97;;;12.94;68.25
48800;BME280;34611;47.964;7.982;2023-05-09T18:57:33;96246.38;;;12.94;68.11
48800;BME280;34611;47.964;7.982;2023-05-09T19:04:34;96242.78;;;12.95;68.24
48800;BME280;34611;47.964;7.982;2023-05-09T19:11:34;96245.38;;;12.95;68.07
48800;BME280;34611;47.964;7.982;2023-05-09T19:18:34;96254.03;;;12.95;68.30
48800;BME280;34611;47.964;7.982;2023-05-09T19:25:35;96254.03;;;12.95;68.23
48800;BME280;34611;47.964;7.982;2023-05-09T19:32:36;96256.81;;;12.94;68.21
48800;BME280;34611;47.964;7.982;2023-05-09T19:39:36;96248.81;;;12.95;68.10
48800;BME280;34611;47.964;7.982;2023-05-09T19:46:36;96255.81;;;12.95;68.10
48800;BME280;34611;47.964;7.982;2023-05-09T19:53:41;96260.22;;;12.94;68.12
48800;BME280;34611;47.964;7.982;2023-05-09T20:00:41;96258.44;;;12.95;68.06
48800;BME280;34611;47.964;7.982;2023-05-09T20:07:42;96254.88;;;12.96;68.20
48800;BME280;34611;47.964;7.982;2023-05-09T20:14:42;96259.25;;;12.95;68.18
48800;BME280;34611;47.964;7.982;2023-05-09T20:21:43;96255.81;;;12.95;68.13
48800;BME280;34611;47.964;7.982;2023-05-09T20:28:43;96254.03;;;12.95;68.24
48800;BME280;34611;47.964;7.982;2023-05-09T20:35:44;96260.22;;;12.94;68.25
48800;BME280;34611;47.964;7.982;2023-05-09T20:42:44;96263.66;;;12.95;68.12
48800;BME280;34611;47.964;7.982;2023-05-09T20:49:44;96264.47;;;12.95;68.22
48800;BME280;34611;47.964;7.982;2023-05-09T20:56:45;96268.88;;;12.95;68.17
48800;BME280;34611;47.964;7.982;2023-05-09T21:03:45;96260.22;;;12.94;68.28
48800;BME280;34611;47.964;7.982;2023-05-09T21:10:45;96257.63;;;12.94;68.29
48800;BME280;34611;47.964;7.982;2023-05-09T21:17:46;96263.66;;;12.95;68.23
48800;BME280;34611;47.964;7.982;2023-05-09T21:24:46;96269.69;;;12.95;68.19
48800;BME280;34611;47.964;7.982;2023-05-09T21:31:46;96262.03;;;12.94;68.15
48800;BME280;34611;47.964;7.982;2023-05-09T21:38:47;96262.03;;;12.94;68.20
48800;BME280;34611;47.964;7.982;2023-05-09T21:45:47;96262.84;;;12.94;68.43
48800;BME280;34611;47.964;7.982;2023-05-09T21:52:48;96263.66;;;12.95;68.15
48800;BME280;34611;47.964;7.982;2023-05-09T21:59:48;96269.69;;;12.95;68.12
48800;BME280;34611;47.964;7.982;2023-05-09T22:06:49;96277.69;;;12.94;68.40
48800;BME280;34611;47.964;7.982;2023-05-09T22:13:49;96285.34;;;12.95;68.23
48800;BME280;34611;47.964;7.982;2023-05-09T22:20:49;96285.34;;;12.95;68.08
48800;BME280;34611;47.964;7.982;2023-05-09T22:27:49;96297.56;;;12.95;68.27
48800;BME280;34611;47.964;7.982;2023-05-09T22:34:50;96314.22;;;12.94;68.25
48800;BME280;34611;47.964;7.982;2023-05-09T22:41:50;96315.84;;;12.95;68.04
48800;BME280;34611;47.964;7.982;2023-05-09T22:48:50;96323.81;;;12.93;68.33
48800;BME280;34611;47.964;7.982;2023-05-09T22:55:50;96329.69;;;12.95;68.29
48800;BME280;34611;47.964;7.982;2023-05-09T23:02:53;96320.25;;;12.94;68.24
48800;BME280;34611;47.964;7.982;2023-05-09T23:09:53;96330.69;;;12.94;68.25
48800;BME280;34611;47.964;7.982;2023-05-09T23:16:54;96337.50;;;12.95;68.01
48800;BME280;34611;47.964;7.982;2023-05-09T23:23:55;96330.69;;;12.94;68.21
48800;BME280;34611;47.964;7.982;2023-05-09T23:30:55;96333.94;;;12.96;68.15
48800;BME280;34611;47.964;7.982;2023-05-09T23:37:56;96331.47;;;12.95;68.11
48800;BME280;34611;47.964;7.982;2023-05-09T23:44:56;96327.91;;;12.96;68.23
48800;BME280;34611;47.964;7.982;2023-05-09T23:51:56;96337.50;;;12.95;68.05
48800;BME280;34611;47.964;7.982;2023-05-09T23:58:57;96322.84;;;12.94;68.13
